Time;durP1;ratioP1;P1;durP2;ratioP2;P2;SDS_P1;SDS_P2;PMS_P1;PMS_P2;Temp;Humidity;BMP_temperature;BMP_pressure;BME280_temperature;BME280_humidity;BME280_pressure;Samples;Min_cycle;Max_cycle;Signal;HPM_P1;HPM_P2
2022/06/26 00:01:23;;;;;;;1.83;1.20;;;;;;;18.27;81.99;98606.97;5030377;28;20053;-77
2022/06/26 00:03:50;;;;;;;1.63;1.13;;;;;;;18.33;83.71;98619.72;5029660;28;20049;-77
2022/06/26 00:06:18;;;;;;;1.23;1.02;;;;;;;18.37;83.25;98628.34;5035497;27;20049;-77
2022/06/26 00:08:44;;;;;;;1.08;0.88;;;;;;;18.32;81.83;98620.81;5155104;27;20043;-77
2022/06/26 00:11:11;;;;;;;3.08;1.05;;;;;;;18.34;85.40;98621.41;5154879;27;20042;-77
2022/06/26 00:13:37;;;;;;;1.48;0.95;;;;;;;18.33;83.77;98635.41;5154513;27;20050;-77
2022/06/26 00:16:04;;;;;;;1.30;1.20;;;;;;;18.34;84.96;98635.16;5152725;27;20463;-77
2022/06/26 00:18:31;;;;;;;0.80;0.80;;;;;;;18.18;85.59;98620.28;5155056;27;20185;-77
2022/06/26 00:20:57;;;;;;;2.80;1.00;;;;;;;18.17;87.98;98646.16;5154805;27;20494;-77
2022/06/26 00:23:25;;;;;;;3.80;1.20;;;;;;;18.04;87.84;98639.03;5153966;27;20512;-77
2022/06/26 00:25:52;;;;;;;4.13;1.27;;;;;;;17.88;90.07;98642.53;5154683;27;20053;-78
2022/06/26 00:28:18;;;;;;;1.83;1.05;;;;;;;17.63;92.24;98618.13;5154837;27;20039;-77
2022/06/26 00:30:45;;;;;;;4.28;1.20;;;;;;;17.73;93.87;98651.31;5154708;27;20429;-77
2022/06/26 00:33:12;;;;;;;3.35;1.15;;;;;;;17.63;95.10;98659.34;5153785;27;20539;-77
2022/06/26 00:35:38;;;;;;;6.75;1.23;;;;;;;17.74;94.78;98669.47;5154614;27;20047;-77
2022/06/26 00:38:05;;;;;;;4.78;1.27;;;;;;;17.48;96.10;98655.22;5154378;27;20050;-77
2022/06/26 00:40:33;;;;;;;2.83;1.27;;;;;;;17.64;96.50;98683.00;5154515;27;20410;-78
2022/06/26 00:42:59;;;;;;;4.25;1.15;;;;;;;17.39;97.33;98666.81;5153895;27;20050;-77
2022/06/26 00:45:25;;;;;;;1.88;1.23;;;;;;;17.50;99.13;98693.44;5154523;27;20043;-78
2022/06/26 00:47:52;;;;;;;3.25;1.98;;;;;;;17.25;100.00;98710.19;5154498;27;20073;-77
2022/06/26 00:50:19;;;;;;;4.88;1.73;;;;;;;17.12;100.00;98730.50;5154161;27;20402;-78
2022/06/26 00:52:46;;;;;;;2.88;2.28;;;;;;;17.12;100.00;98767.03;5153693;27;20054;-77
2022/06/26 00:55:13;;;;;;;5.45;2.00;;;;;;;17.10;100.00;98779.31;5153368;27;20047;-77
2022/06/26 00:57:40;;;;;;;3.03;1.92;;;;;;;17.26;100.00;98747.56;5154027;27;20047;-77
2022/06/26 01:00:09;;;;;;;9.27;2.20;;;;;;;17.50;100.00;98756.66;5154086;27;20402;-77
2022/06/26 01:02:37;;;;;;;6.00;2.35;;;;;;;17.54;100.00;98748.75;5153631;27;20054;-78
2022/06/26 01:05:04;;;;;;;3.90;2.70;;;;;;;17.66;100.00;98753.16;5153994;27;20482;-77
2022/06/26 01:07:32;;;;;;;4.97;2.15;;;;;;;17.58;100.00;98738.94;5088887;27;20434;-77
2022/06/26 01:09:58;;;;;;;6.15;1.98;;;;;;;17.61;100.00;98753.03;5029393;28;20338;-78
2022/06/26 01:12:25;;;;;;;2.88;2.22;;;;;;;17.65;100.00;98761.66;5028468;28;20050;-78
2022/06/26 01:14:53;;;;;;;3.30;2.22;;;;;;;17.59;100.00;98757.94;5027609;28;20052;-78
2022/06/26 01:17:19;;;;;;;5.75;2.58;;;;;;;17.54;100.00;98755.09;5029008;28;20056;-78
2022/06/26 01:19:47;;;;;;;5.57;2.20;;;;;;;17.50;100.00;98767.63;5029423;28;20057;-78
2022/06/26 01:22:13;;;;;;;3.95;1.92;;;;;;;17.55;100.00;98758.69;5028460;28;20053;-78
2022/06/26 01:24:41;;;;;;;3.95;2.33;;;;;;;17.48;100.00;98748.66;5029028;28;20053;-78
2022/06/26 01:27:09;;;;;;;3.00;2.35;;;;;;;17.71;100.00;98754.38;5029200;28;20058;-78
2022/06/26 01:29:35;;;;;;;6.00;2.40;;;;;;;17.86;100.00;98761.00;5029116;28;20099;-78
2022/06/26 01:32:02;;;;;;;3.63;2.20;;;;;;;17.94;100.00;98757.06;5028747;28;20060;-78
2022/06/26 01:34:29;;;;;;;5.55;3.03;;;;;;;18.04;100.00;98767.47;5028609;28;20056;-77
2022/06/26 01:36:56;;;;;;;5.55;2.25;;;;;;;17.98;100.00;98738.19;5029069;28;20046;-77
2022/06/26 01:39:22;;;;;;;2.25;2.05;;;;;;;17.98;100.00;98739.03;5028973;28;20220;-78
2022/06/26 01:41:50;;;;;;;5.38;2.38;;;;;;;18.09;100.00;98747.47;5028716;28;20072;-77
2022/06/26 01:44:17;;;;;;;4.00;2.28;;;;;;;17.92;100.00;98731.75;5028223;28;20504;-78
2022/06/26 01:46:44;;;;;;;4.05;2.10;;;;;;;17.99;100.00;98737.09;5028741;28;20132;-77
2022/06/26 01:49:10;;;;;;;4.00;2.28;;;;;;;17.95;100.00;98727.69;5028733;28;20493;-78
2022/06/26 01:51:37;;;;;;;3.28;2.10;;;;;;;18.11;100.00;98735.16;5028738;28;20057;-78
2022/06/26 01:54:03;;;;;;;3.67;2.10;;;;;;;18.19;100.00;98728.44;5028084;28;20049;-78
2022/06/26 01:56:30;;;;;;;1.75;1.60;;;;;;;18.21;100.00;98721.59;5028867;28;20068;-78
2022/06/26 01:58:58;;;;;;;5.68;2.00;;;;;;;18.16;100.00;98717.91;5028689;28;20057;-77
2022/06/26 02:01:24;;;;;;;3.55;2.22;;;;;;;17.85;100.00;98707.13;5028523;28;20053;-78
2022/06/26 02:03:51;;;;;;;2.05;1.73;;;;;;;17.99;100.00;98745.34;5027897;28;20053;-78
2022/06/26 02:06:18;;;;;;;6.15;2.03;;;;;;;17.89;100.00;98736.88;5028366;28;20046;-78
2022/06/26 02:08:44;;;;;;;2.75;2.10;;;;;;;18.09;100.00;98740.06;5152365;27;20058;-78
2022/06/26 02:13:55;;;;;;;3.17;2.13;;;;;;;18.04;100.00;98750.97;5152327;27;20053;-78
2022/06/26 02:16:26;;;;;;;4.15;1.85;;;;;;;17.91;100.00;98721.81;5151094;27;20038;-77
2022/06/26 02:18:55;;;;;;;4.47;1.75;;;;;;;17.77;100.00;98725.91;5152686;27;20143;-77
2022/06/26 02:21:24;;;;;;;5.22;2.13;;;;;;;17.77;100.00;98747.91;5153077;27;20047;-78
2022/06/26 02:23:52;;;;;;;3.08;1.52;;;;;;;17.91;100.00;98748.50;5152318;27;20043;-78
2022/06/26 02:26:20;;;;;;;2.08;1.80;;;;;;;17.85;100.00;98753.84;5152823;27;20055;-77
2022/06/26 02:28:48;;;;;;;4.47;2.08;;;;;;;17.96;100.00;98754.94;5152923;27;20042;-77
2022/06/26 02:31:14;;;;;;;1.92;1.40;;;;;;;17.99;100.00;98737.94;5152718;27;20047;-78
2022/06/26 02:33:42;;;;;;;1.90;1.50;;;;;;;17.95;100.00;98744.19;5152112;27;20124;-77
2022/06/26 02:36:09;;;;;;;2.85;1.73;;;;;;;18.00;100.00;98745.09;5152605;27;20440;-78
2022/06/26 02:38:37;;;;;;;2.28;1.60;;;;;;;18.10;100.00;98747.25;5152719;27;20038;-78
2022/06/26 02:41:04;;;;;;;2.78;1.30;;;;;;;18.05;100.00;98749.91;5152649;27;20043;-78
2022/06/26 02:43:31;;;;;;;3.10;1.50;;;;;;;18.00;100.00;98747.84;5152254;27;20057;-78
2022/06/26 02:45:57;;;;;;;3.35;1.52;;;;;;;17.71;100.00;98746.94;5152834;27;20497;-77
2022/06/26 02:48:25;;;;;;;4.47;1.90;;;;;;;17.82;100.00;98759.00;5152398;27;20050;-78
2022/06/26 02:50:53;;;;;;;6.18;1.50;;;;;;;17.65;100.00;98742.41;5152778;27;20047;-77
2022/06/26 02:53:19;;;;;;;2.22;1.35;;;;;;;17.66;100.00;98750.41;5151646;27;20051;-78
2022/06/26 02:55:46;;;;;;;2.08;1.30;;;;;;;17.50;100.00;98756.66;5152645;27;20047;-78
2022/06/26 02:58:13;;;;;;;1.92;1.20;;;;;;;17.66;100.00;98758.66;5152542;27;20061;-78
2022/06/26 03:00:39;;;;;;;1.77;1.52;;;;;;;17.57;100.00;98754.63;5152655;27;20070;-78
2022/06/26 03:03:06;;;;;;;2.00;1.48;;;;;;;17.47;100.00;98759.88;5151575;27;20058;-78
2022/06/26 03:05:33;;;;;;;2.90;2.08;;;;;;;17.19;100.00;98755.09;5152819;27;20053;-78
2022/06/26 03:08:01;;;;;;;2.08;1.73;;;;;;;17.02;100.00;98747.56;5071102;27;20046;-78
2022/06/26 03:10:28;;;;;;;1.88;1.42;;;;;;;17.17;100.00;98763.56;5027818;28;20054;-77
2022/06/26 03:12:54;;;;;;;2.90;1.60;;;;;;;17.18;100.00;98751.53;5027422;28;20056;-78
2022/06/26 03:15:21;;;;;;;2.30;1.45;;;;;;;17.25;100.00;98749.50;5025796;28;20060;-78
2022/06/26 03:17:48;;;;;;;3.22;1.50;;;;;;;17.35;100.00;98754.38;5027813;28;20513;-78
2022/06/26 03:20:18;;;;;;;2.80;1.40;;;;;;;17.20;100.00;98738.38;5030920;28;20060;-77
2022/06/26 03:22:44;;;;;;;3.42;1.60;;;;;;;17.17;100.00;98753.41;5030611;28;20424;-77
2022/06/26 03:25:13;;;;;;;2.22;1.20;;;;;;;17.13;100.00;98751.38;5030871;28;20049;-78
2022/06/26 03:27:40;;;;;;;5.57;1.65;;;;;;;16.99;100.00;98735.13;5031078;28;20053;-78
2022/06/26 03:30:09;;;;;;;1.67;1.42;;;;;;;17.10;100.00;98738.97;5030885;28;20049;-78
2022/06/26 03:32:36;;;;;;;2.67;1.42;;;;;;;16.89;100.00;98706.59;5030100;28;20092;-78
2022/06/26 03:35:03;;;;;;;2.10;1.40;;;;;;;17.07;100.00;98730.38;5030851;28;20042;-77
2022/06/26 03:37:29;;;;;;;2.22;1.30;;;;;;;17.20;100.00;98737.56;5030994;28;20512;-78
2022/06/26 03:39:56;;;;;;;3.50;1.10;;;;;;;17.30;100.00;98749.59;5031004;28;20053;-77
2022/06/26 03:42:24;;;;;;;1.73;1.35;;;;;;;17.36;100.00;98749.72;5030298;28;20061;-77
2022/06/26 03:44:50;;;;;;;4.00;1.65;;;;;;;17.41;100.00;98738.84;5030598;28;20049;-78
2022/06/26 03:47:17;;;;;;;3.90;1.27;;;;;;;17.55;100.00;98747.69;5030795;28;20053;-77
2022/06/26 03:49:43;;;;;;;3.25;1.10;;;;;;;17.62;100.00;98735.47;5030685;28;20041;-77
2022/06/26 03:52:10;;;;;;;2.17;1.25;;;;;;;17.52;100.00;98736.09;5029789;28;20053;-77
2022/06/26 03:54:36;;;;;;;3.13;1.48;;;;;;;17.40;100.00;98724.25;5030923;28;20053;-77
2022/06/26 03:57:04;;;;;;;4.10;1.33;;;;;;;17.46;100.00;98739.81;5030342;28;20050;-77
2022/06/26 03:59:33;;;;;;;3.70;1.58;;;;;;;17.37;100.00;98723.91;5030298;28;20060;-77
2022/06/26 04:01:59;;;;;;;4.63;1.75;;;;;;;17.32;100.00;98730.13;5030357;28;20057;-77
2022/06/26 04:04:26;;;;;;;2.55;1.33;;;;;;;17.31;100.00;98751.28;5029925;28;20053;-77
2022/06/26 04:06:53;;;;;;;2.08;1.63;;;;;;;17.53;100.00;98753.41;5049692;27;20065;-77
2022/06/26 04:09:19;;;;;;;2.05;1.52;;;;;;;17.65;100.00;98758.91;5155062;27;20057;-78
2022/06/26 04:11:46;;;;;;;1.20;1.10;;;;;;;17.68;100.00;98764.75;5155383;27;20072;-78
2022/06/26 04:14:12;;;;;;;2.10;1.38;;;;;;;17.64;100.00;98744.34;5152635;27;20050;-78
2022/06/26 04:16:40;;;;;;;3.38;1.27;;;;;;;17.87;100.00;98772.88;5154611;27;20042;-78
2022/06/26 04:19:07;;;;;;;4.25;1.35;;;;;;;17.94;100.00;98776.31;5154979;27;20058;-77
2022/06/26 04:21:33;;;;;;;6.88;1.17;;;;;;;18.10;100.00;98780.25;5155400;27;20435;-77
2022/06/26 04:24:00;;;;;;;2.25;1.35;;;;;;;18.11;100.00;98781.94;5153890;27;20054;-77
2022/06/26 04:26:26;;;;;;;4.32;1.65;;;;;;;18.18;100.00;98770.78;5154712;27;20049;-78
2022/06/26 04:28:53;;;;;;;2.63;1.17;;;;;;;18.08;100.00;98748.56;5154879;27;20047;-78
2022/06/26 04:31:19;;;;;;;1.45;1.35;;;;;;;18.10;100.00;98749.97;5153474;27;20054;-77
2022/06/26 04:33:47;;;;;;;1.65;1.13;;;;;;;18.25;100.00;98767.91;5154245;27;20054;-78
2022/06/26 04:36:14;;;;;;;2.22;1.60;;;;;;;18.35;100.00;98771.69;5154282;27;20055;-78
2022/06/26 04:38:40;;;;;;;2.65;1.20;;;;;;;18.41;100.00;98778.09;5154698;27;20043;-78
2022/06/26 04:43:51;;;;;;;1.52;1.00;;;;;;;18.70;100.00;98758.84;5153924;27;20070;-78
2022/06/26 04:46:17;;;;;;;3.25;1.25;;;;;;;18.67;100.00;98751.91;5154228;27;20051;-77
2022/06/26 04:48:44;;;;;;;2.80;0.98;;;;;;;18.86;100.00;98769.06;5154556;27;20057;-77
2022/06/26 04:51:12;;;;;;;1.60;1.20;;;;;;;18.68;100.00;98744.47;5154135;27;20050;-77
2022/06/26 04:53:38;;;;;;;3.35;1.15;;;;;;;18.77;100.00;98758.66;5153698;27;20046;-77
2022/06/26 04:56:05;;;;;;;1.67;1.33;;;;;;;18.95;100.00;98771.41;5154044;27;20121;-78
2022/06/26 04:58:32;;;;;;;1.20;1.10;;;;;;;18.96;100.00;98749.09;5154360;27;20046;-78
2022/06/26 05:00:58;;;;;;;2.88;1.20;;;;;;;19.17;100.00;98763.22;5154285;27;20078;-77
2022/06/26 05:03:25;;;;;;;1.58;0.90;;;;;;;19.12;100.00;98760.38;5153573;27;20055;-78
2022/06/26 05:05:51;;;;;;;3.15;1.33;;;;;;;19.22;100.00;98757.78;5154076;27;20054;-78
2022/06/26 05:08:19;;;;;;;2.72;1.20;;;;;;;19.39;100.00;98768.78;5065049;27;20045;-78
2022/06/26 05:10:45;;;;;;;1.25;1.05;;;;;;;19.37;100.00;98751.69;5029462;28;20072;-78
2022/06/26 05:13:12;;;;;;;4.13;1.25;;;;;;;19.41;100.00;98755.59;5028395;28;20045;-78
2022/06/26 05:15:38;;;;;;;0.90;0.82;;;;;;;19.49;99.47;98754.34;5028117;28;20053;-78
2022/06/26 05:18:05;;;;;;;3.17;1.20;;;;;;;19.77;99.67;98765.25;5029164;28;20050;-78
2022/06/26 05:20:31;;;;;;;2.08;0.88;;;;;;;19.92;97.94;98769.31;5029151;28;20052;-78
2022/06/26 05:22:58;;;;;;;1.08;0.90;;;;;;;20.14;95.49;98766.53;5028437;28;20060;-77
2022/06/26 05:25:26;;;;;;;1.15;1.05;;;;;;;20.11;92.24;98754.09;5029052;28;20061;-78
2022/06/26 05:27:53;;;;;;;0.90;0.90;;;;;;;20.18;92.02;98764.09;5028840;28;20041;-78
2022/06/26 05:30:19;;;;;;;5.57;1.05;;;;;;;20.22;89.47;98779.88;5028996;28;20061;-78
2022/06/26 05:32:46;;;;;;;3.95;0.98;;;;;;;20.20;86.86;98789.50;5028293;28;20481;-78
2022/06/26 05:35:12;;;;;;;1.58;1.10;;;;;;;20.21;86.96;98788.44;5028844;28;20514;-78
2022/06/26 05:37:39;;;;;;;0.95;0.80;;;;;;;20.29;84.30;98797.09;5028707;28;20045;-78
2022/06/26 05:40:07;;;;;;;0.95;0.80;;;;;;;20.08;84.77;98773.94;5028846;28;20061;-78
2022/06/26 05:42:35;;;;;;;1.50;1.00;;;;;;;20.38;85.96;98794.69;5027683;28;20488;-78
2022/06/26 05:45:01;;;;;;;0.77;0.70;;;;;;;20.35;83.26;98809.00;5028950;28;20058;-78
2022/06/26 05:47:28;;;;;;;1.77;1.00;;;;;;;20.38;83.18;98822.28;5028743;28;20072;-78
2022/06/26 05:49:54;;;;;;;2.45;1.00;;;;;;;20.33;85.12;98814.78;5028682;28;20050;-78
2022/06/26 05:52:21;;;;;;;1.10;0.90;;;;;;;20.43;82.83;98829.81;5028052;28;20517;-78
2022/06/26 05:54:48;;;;;;;1.00;0.93;;;;;;;20.44;84.53;98820.44;5028787;28;20049;-78
2022/06/26 05:57:16;;;;;;;3.50;0.75;;;;;;;20.64;85.25;98845.53;5028229;28;20046;-78
2022/06/26 05:59:43;;;;;;;0.90;0.82;;;;;;;20.64;83.95;98839.16;5028650;28;20093;-78
2022/06/26 06:02:10;;;;;;;1.75;1.10;;;;;;;20.42;84.04;98825.41;5027618;28;20057;-78
2022/06/26 06:04:36;;;;;;;5.55;0.80;;;;;;;;;;5028563;28;20052;-78
2022/06/26 06:07:03;;;;;;;1.20;0.90;;;;;;;20.55;86.08;98821.38;5048671;27;20038;-78
2022/06/26 06:09:30;;;;;;;1.02;0.93;;;;;;;20.60;85.66;98836.09;5153077;27;20047;-78
2022/06/26 06:11:57;;;;;;;0.93;0.90;;;;;;;20.54;85.29;98826.09;5152683;27;20060;-78
2022/06/26 06:14:23;;;;;;;0.88;0.77;;;;;;;20.52;86.92;98818.06;5151531;27;20055;-78
2022/06/26 06:16:51;;;;;;;1.15;0.95;;;;;;;20.62;87.50;98841.34;5152676;27;20050;-78
2022/06/26 06:19:18;;;;;;;0.65;0.65;;;;;;;20.65;86.63;98843.59;5152771;27;20046;-78
2022/06/26 06:21:44;;;;;;;1.70;0.90;;;;;;;21.55;82.06;98819.06;5152954;27;20050;-78
2022/06/26 06:24:11;;;;;;;2.13;0.85;;;;;;;22.52;74.26;98823.50;5152184;27;20050;-78
2022/06/26 06:26:38;;;;;;;1.65;0.80;;;;;;;23.23;69.40;98815.59;5153055;27;20054;-78
2022/06/26 06:29:04;;;;;;;1.50;0.90;;;;;;;23.90;61.84;98830.28;5152548;27;20049;-78
2022/06/26 06:31:31;;;;;;;1.00;0.90;;;;;;;24.25;62.93;98819.34;5153103;27;20064;-78
2022/06/26 06:33:59;;;;;;;1.02;0.60;;;;;;;23.79;61.22;98820.31;5152067;27;20054;-78
2022/06/26 06:36:25;;;;;;;2.78;0.77;;;;;;;23.65;59.47;98815.31;5152820;27;20054;-77
2022/06/26 06:38:52;;;;;;;2.60;0.80;;;;;;;23.73;59.08;98838.91;5152644;27;20528;-77
2022/06/26 06:41:18;;;;;;;0.68;0.68;;;;;;;24.00;56.85;98835.81;5152452;27;20050;-78
2022/06/26 06:43:46;;;;;;;0.63;0.55;;;;;;;24.41;55.85;98826.50;5152055;27;20046;-78
2022/06/26 06:46:13;;;;;;;0.60;0.60;;;;;;;24.73;55.82;98847.50;5152147;27;20051;-78
2022/06/26 06:48:40;;;;;;;1.85;0.70;;;;;;;24.87;54.75;98828.25;5152921;27;20075;-78
2022/06/26 06:51:08;;;;;;;0.77;0.52;;;;;;;24.70;54.93;98840.56;5152883;27;20046;-77
2022/06/26 06:53:34;;;;;;;1.95;0.90;;;;;;;24.11;55.83;98838.56;5153209;27;20051;-78
2022/06/26 06:56:01;;;;;;;1.55;0.60;;;;;;;24.26;57.64;98843.25;5156508;27;20069;-78
2022/06/26 06:58:27;;;;;;;1.27;0.60;;;;;;;24.05;57.23;98843.31;5156248;27;20050;-78
2022/06/26 07:00:54;;;;;;;2.13;0.60;;;;;;;23.41;59.47;98848.34;5156567;27;20043;-78
2022/06/26 07:03:21;;;;;;;0.50;0.50;;;;;;;23.32;59.56;98847.25;5155609;27;20057;-78
2022/06/26 07:05:47;;;;;;;0.77;0.55;;;;;;;23.52;58.38;98857.50;5156394;27;20134;-78
2022/06/26 07:08:15;;;;;;;5.43;0.63;;;;;;;24.06;56.39;98835.78;5078586;27;20052;-77
2022/06/26 07:10:42;;;;;;;2.00;0.68;;;;;;;24.46;53.95;98845.09;5031155;28;20049;-78
2022/06/26 07:13:10;;;;;;;0.40;0.40;;;;;;;24.92;53.61;98851.28;5030296;28;20049;-78
2022/06/26 07:15:36;;;;;;;1.00;0.63;;;;;;;25.18;52.63;98841.94;5029904;28;20053;-78
2022/06/26 07:18:03;;;;;;;1.00;0.70;;;;;;;25.41;52.12;98837.63;5031117;28;20053;-78
2022/06/26 07:20:30;;;;;;;1.02;0.60;;;;;;;25.84;51.78;98853.69;5030931;28;20195;-78
2022/06/26 07:22:56;;;;;;;0.60;0.60;;;;;;;25.00;52.89;98860.16;5030581;28;20049;-78
2022/06/26 07:25:24;;;;;;;0.47;0.47;;;;;;;25.75;50.72;98843.16;5030897;28;20076;-78
2022/06/26 07:27:50;;;;;;;0.98;0.45;;;;;;;25.64;49.61;98857.47;5031097;28;20061;-78
2022/06/26 07:30:17;;;;;;;0.55;0.55;;;;;;;25.50;50.20;98862.88;5030837;28;20060;-78
2022/06/26 07:32:44;;;;;;;1.15;0.60;;;;;;;26.15;47.59;98865.38;5030585;28;20053;-78
2022/06/26 07:35:11;;;;;;;0.43;0.43;;;;;;;26.28;48.25;98861.03;5030636;28;20550;-79
2022/06/26 07:37:37;;;;;;;0.90;0.50;;;;;;;26.44;47.28;98868.09;5030819;28;20473;-78
2022/06/26 07:40:05;;;;;;;0.50;0.50;;;;;;;26.60;47.74;98876.25;5030758;28;20048;-77
2022/06/26 07:42:32;;;;;;;1.42;0.50;;;;;;;26.25;48.67;98869.97;5029976;28;20520;-78
2022/06/26 07:44:59;;;;;;;0.30;0.30;;;;;;;26.36;47.87;98834.47;5030722;28;20058;-79
2022/06/26 07:47:25;;;;;;;0.95;0.50;;;;;;;26.59;46.55;98850.34;5030559;28;20512;-78
2022/06/26 07:49:52;;;;;;;1.85;0.40;;;;;;;26.49;47.71;98833.75;5030622;28;20061;-78
2022/06/26 07:52:18;;;;;;;0.50;0.50;;;;;;;26.44;48.07;98854.16;5029830;28;20420;-78
2022/06/26 07:54:45;;;;;;;0.52;0.52;;;;;;;26.23;49.30;98853.56;5030863;28;20049;-78
2022/06/26 07:57:11;;;;;;;0.50;0.50;;;;;;;26.14;49.44;98858.94;5030350;28;20056;-78
2022/06/26 07:59:39;;;;;;;0.95;0.52;;;;;;;26.26;49.08;98855.75;5029359;28;20064;-79
2022/06/26 08:02:06;;;;;;;3.00;0.57;;;;;;;25.72;50.52;98866.03;5029690;28;20132;-77
2022/06/26 08:04:32;;;;;;;0.98;0.50;;;;;;;25.54;51.23;98866.75;5030040;28;20050;-78
2022/06/26 08:06:59;;;;;;;1.52;0.47;;;;;;;25.53;51.24;98845.59;5038620;27;20057;-78
2022/06/26 08:09:25;;;;;;;2.65;0.70;;;;;;;25.23;50.68;98836.34;5155642;27;20042;-77
2022/06/26 08:11:52;;;;;;;2.20;0.63;;;;;;;25.24;49.62;98846.34;5155129;27;20124;-78
2022/06/26 08:14:18;;;;;;;1.52;0.65;;;;;;;25.41;48.86;98837.63;5153505;27;20047;-79
2022/06/26 08:16:46;;;;;;;1.10;0.50;;;;;;;24.95;49.82;98836.00;5154669;27;20042;-77
2022/06/26 08:19:12;;;;;;;0.50;0.45;;;;;;;25.02;49.82;98846.78;5155090;27;20047;-78
2022/06/26 08:24:23;;;;;;;0.63;0.52;;;;;;;25.22;49.98;98841.09;5154624;27;20092;-77
2022/06/26 08:26:50;;;;;;;4.43;0.45;;;;;;;25.17;49.12;98841.13;5154674;27;20494;-77
2022/06/26 08:29:16;;;;;;;0.60;0.60;;;;;;;24.96;51.36;98818.19;5154704;27;20054;-77
2022/06/26 08:31:43;;;;;;;1.48;0.57;;;;;;;24.83;50.96;98819.66;5154822;27;20515;-77
2022/06/26 08:34:10;;;;;;;0.65;0.57;;;;;;;24.70;51.72;98829.44;5154015;27;20047;-81
2022/06/26 08:36:38;;;;;;;0.80;0.80;;;;;;;24.88;50.77;98839.06;5154774;27;20092;-80
2022/06/26 08:39:05;;;;;;;1.55;0.65;;;;;;;25.11;53.22;98844.22;5154776;27;20144;-78
2022/06/26 08:41:39;;;;;;;0.60;0.60;;;;;;;25.23;50.91;98842.75;5154650;27;20055;-78
2022/06/26 08:44:06;;;;;;;0.40;0.30;;;;;;;25.43;50.53;98830.66;5153856;27;20043;-79
2022/06/26 08:46:36;;;;;;;1.65;0.73;;;;;;;25.53;50.36;98840.84;5154578;27;20467;-79
2022/06/26 08:49:07;;;;;;;1.70;0.60;;;;;;;25.66;50.02;98842.13;5154326;27;20051;-80
2022/06/26 08:51:36;;;;;;;3.47;0.50;;;;;;;25.59;50.02;98834.16;5154818;27;20047;-79
2022/06/26 08:54:03;;;;;;;1.05;0.75;;;;;;;25.71;49.51;98844.03;5153529;27;20047;-77
2022/06/26 08:56:30;;;;;;;0.70;0.70;;;;;;;25.77;48.71;98849.28;5154304;27;20047;-79
2022/06/26 08:58:56;;;;;;;0.40;0.40;;;;;;;25.97;47.25;98847.44;5154444;27;20047;-79
2022/06/26 09:01:23;;;;;;;0.77;0.55;;;;;;;25.99;47.04;98834.06;5154220;27;20124;-77
2022/06/26 09:03:49;;;;;;;0.50;0.50;;;;;;;25.68;47.70;98856.59;5153500;27;20062;-78
2022/06/26 09:06:15;;;;;;;0.50;0.50;;;;;;;25.74;48.77;98858.22;5153865;27;20418;-77
2022/06/26 09:08:48;;;;;;;3.53;0.80;;;;;;;25.69;48.08;98843.53;5060854;27;20053;-77
2022/06/26 09:11:15;;;;;;;0.50;0.50;;;;;;;25.87;48.76;98839.16;5029441;28;20068;-77
2022/06/26 09:13:43;;;;;;;0.93;0.60;;;;;;;26.00;49.56;98852.44;5028674;28;20068;-79
2022/06/26 09:16:11;;;;;;;0.90;0.52;;;;;;;26.07;51.76;98847.31;5027032;28;20042;-77
2022/06/26 09:18:39;;;;;;;0.93;0.88;;;;;;;25.88;49.49;98850.00;5029199;28;20053;-78
2022/06/26 09:21:08;;;;;;;0.90;0.70;;;;;;;25.99;49.18;98841.59;5029205;28;20045;-79
2022/06/26 09:23:35;;;;;;;1.25;0.80;;;;;;;26.24;48.31;98854.38;5028670;28;20459;-78
2022/06/26 09:26:04;;;;;;;1.08;0.70;;;;;;;26.23;47.86;98855.53;5029024;28;20064;-77
2022/06/26 09:28:31;;;;;;;0.70;0.60;;;;;;;26.48;48.56;98838.50;5029079;28;20069;-78
2022/06/26 09:31:00;;;;;;;7.70;0.73;;;;;;;26.61;50.54;98844.47;5029159;28;20046;-78
2022/06/26 09:33:28;;;;;;;0.82;0.70;;;;;;;27.05;49.35;98845.28;5028251;28;20074;-78
2022/06/26 09:35:56;;;;;;;0.57;0.57;;;;;;;26.90;46.78;98833.22;5028997;28;20052;-77
2022/06/26 09:38:24;;;;;;;0.70;0.70;;;;;;;26.92;47.41;98847.69;5028612;28;20042;-78
2022/06/26 09:40:54;;;;;;;0.60;0.50;;;;;;;26.67;49.02;98851.66;5029260;28;20053;-78
2022/06/26 09:43:33;;;;;;;1.23;0.70;;;;;;;26.58;48.25;98837.53;5028191;28;20466;-81
2022/06/26 09:46:01;;;;;;;2.08;0.60;;;;;;;26.98;49.00;98854.03;5029056;28;20049;-78
2022/06/26 09:48:28;;;;;;;0.50;0.50;;;;;;;27.31;47.46;98852.13;5028617;28;20049;-77
2022/06/26 09:50:57;;;;;;;1.35;0.60;;;;;;;27.29;46.36;98850.78;5028903;28;20045;-77
2022/06/26 09:53:24;;;;;;;0.80;0.80;;;;;;;27.47;46.33;98844.34;5028134;28;20052;-80
2022/06/26 09:55:53;;;;;;;1.30;0.90;;;;;;;27.39;45.57;98841.44;5028773;28;20041;-78
2022/06/26 09:58:20;;;;;;;1.05;0.85;;;;;;;27.16;46.55;98855.19;5028591;28;20053;-78
2022/06/26 10:08:59;;;;;;;1.25;0.73;;;;;;;27.53;45.30;98837.53;5129345;27;20071;-77
2022/06/26 10:11:28;;;;;;;1.08;0.73;;;;;;;27.66;44.97;98824.78;5153038;27;20054;-77
2022/06/26 10:13:57;;;;;;;4.63;0.53;;;;;;;27.50;46.75;98815.00;5152346;27;20047;-78
2022/06/26 10:16:47;;;;;;;2.45;0.73;;;;;;;27.47;44.55;98819.22;5151801;27;20047;-79
2022/06/26 10:19:23;;;;;;;0.80;0.70;;;;;;;27.73;44.93;98816.00;5152746;27;20051;-78
2022/06/26 10:21:50;;;;;;;1.00;0.65;;;;;;;27.69;44.54;98821.38;5152818;27;20070;-77
2022/06/26 10:24:16;;;;;;;1.00;0.77;;;;;;;27.62;44.70;98834.06;5152075;27;20046;-79
2022/06/26 10:26:53;;;;;;;0.60;0.60;;;;;;;27.86;45.30;98814.38;5152974;27;20074;-77
2022/06/26 10:29:19;;;;;;;0.95;0.60;;;;;;;27.90;44.24;98827.41;5155521;27;20046;-79
2022/06/26 10:31:49;;;;;;;0.43;0.43;;;;;;;27.94;44.32;98832.38;5156969;27;20052;-78
2022/06/26 10:34:19;;;;;;;0.73;0.50;;;;;;;27.70;45.26;98833.34;5156320;27;20051;-76
2022/06/26 10:36:56;;;;;;;;;;;;;;;27.55;45.78;98826.94;5157527;27;20485;-80
2022/06/26 10:39:23;;;;;;;0.73;0.73;;;;;;;27.73;44.13;98822.41;5156792;27;19919;-78
2022/06/26 10:44:42;;;;;;;1.35;0.60;;;;;;;28.39;43.25;98819.50;5157095;27;20050;-78
2022/06/26 10:47:17;;;;;;;0.63;0.52;;;;;;;28.10;44.11;98813.41;5156390;27;20046;-78
2022/06/26 10:49:48;;;;;;;0.90;0.70;;;;;;;28.12;43.28;98814.72;5156765;27;20532;-78
2022/06/26 10:52:24;;;;;;;0.90;0.73;;;;;;;28.20;42.37;98802.84;5155943;27;20548;-78
2022/06/26 10:54:52;;;;;;;2.08;0.70;;;;;;;27.93;43.17;98814.81;5156909;27;20054;-79
2022/06/26 10:57:33;;;;;;;3.65;1.48;;;;;;;28.08;43.29;98799.75;5156695;27;20051;-78
2022/06/26 11:00:01;;;;;;;0.85;0.63;;;;;;;28.27;43.57;98801.59;5156542;27;20051;-78
2022/06/26 11:02:36;;;;;;;0.63;0.63;;;;;;;28.62;42.82;98807.59;5155834;27;20047;-78
2022/06/26 11:05:04;;;;;;;0.77;0.60;;;;;;;28.62;44.12;98779.63;5156590;27;20053;-77
2022/06/26 11:07:42;;;;;;;2.28;0.80;;;;;;;28.53;43.43;98788.72;5132847;27;20049;-78
2022/06/26 11:10:11;;;;;;;3.10;0.80;;;;;;;28.68;42.62;98796.00;5031190;28;20057;-78
2022/06/26 11:12:40;;;;;;;2.25;0.75;;;;;;;28.84;42.27;98798.44;5030914;28;20067;-79
2022/06/26 11:15:07;;;;;;;0.80;0.60;;;;;;;29.02;43.58;98791.81;5029777;28;20050;-78
2022/06/26 11:17:35;;;;;;;1.15;0.70;;;;;;;29.06;41.16;98786.44;5031173;28;20060;-78
2022/06/26 11:22:48;;;;;;;0.80;0.60;;;;;;;29.00;41.21;98788.53;5030350;28;20099;-80
2022/06/26 11:25:14;;;;;;;2.10;0.52;;;;;;;29.22;41.81;98796.16;5030787;28;20060;-78
2022/06/26 11:27:41;;;;;;;2.80;0.70;;;;;;;29.22;41.46;98787.75;5031145;28;20049;-79
2022/06/26 11:30:08;;;;;;;1.13;0.60;;;;;;;29.32;40.68;98788.66;5030716;28;20064;-77
2022/06/26 11:32:36;;;;;;;0.60;0.60;;;;;;;28.78;42.14;98770.59;5030358;28;20057;-80
2022/06/26 11:35:03;;;;;;;0.82;0.65;;;;;;;28.45;43.09;98763.47;5030798;28;20053;-77
2022/06/26 11:37:35;;;;;;;0.90;0.60;;;;;;;28.34;43.52;98774.88;5030641;28;20053;-79
2022/06/26 11:40:12;;;;;;;0.80;0.80;;;;;;;28.36;42.47;98771.75;5030265;28;20071;-77
2022/06/26 11:42:39;;;;;;;0.90;0.70;;;;;;;28.12;42.39;98778.41;5030321;28;20054;-79
2022/06/26 11:45:07;;;;;;;2.22;0.82;;;;;;;28.36;42.78;98766.19;5030570;28;20050;-78
2022/06/26 11:47:36;;;;;;;1.45;0.50;;;;;;;28.51;43.62;98770.59;5030742;28;20046;-78
2022/06/26 11:50:07;;;;;;;0.80;0.80;;;;;;;28.36;41.95;98768.97;5030774;28;20057;-77
2022/06/26 11:52:33;;;;;;;0.73;0.70;;;;;;;28.14;43.20;98742.63;5030240;28;20789;-81
2022/06/26 11:55:02;;;;;;;2.15;0.60;;;;;;;28.69;41.53;98755.66;5030685;28;20063;-78